sensor_id;sensor_type;location;lat;lon;timestamp;temperature;humidity
18444;DHT22;9350;53.176;8.194;2023-09-08T00:00:03;19.70;99.90
18444;DHT22;9350;53.176;8.194;2023-09-08T00:02:30;19.80;99.90
18444;DHT22;9350;53.176;8.194;2023-09-08T00:04:57;19.80;99.90
18444;DHT22;9350;53.176;8.194;2023-09-08T00:07:23;19.80;99.90
18444;DHT22;9350;53.176;8.194;2023-09-08T00:09:50;19.90;99.90
18444;DHT22;9350;53.176;8.194;2023-09-08T00:12:17;19.90;99.90
18444;DHT22;9350;53.176;8.194;2023-09-08T00:14:43;19.90;99.90
18444;DHT22;9350;53.176;8.194;2023-09-08T00:17:11;20.00;99.90
18444;DHT22;9350;53.176;8.194;2023-09-08T00:19:38;19.90;99.90
18444;DHT22;9350;53.176;8.194;2023-09-08T00:22:05;19.90;99.90
18444;DHT22;9350;53.176;8.194;2023-09-08T00:24:33;19.90;99.90
18444;DHT22;9350;53.176;8.194;2023-09-08T00:26:59;20.00;99.90
18444;DHT22;9350;53.176;8.194;2023-09-08T00:29:26;19.90;99.90
18444;DHT22;9350;53.176;8.194;2023-09-08T00:31:53;19.90;99.90
18444;DHT22;9350;53.176;8.194;2023-09-08T00:34:21;20.00;99.90
18444;DHT22;9350;53.176;8.194;2023-09-08T00:36:47;20.00;99.90
18444;DHT22;9350;53.176;8.194;2023-09-08T00:39:14;20.00;99.90
18444;DHT22;9350;53.176;8.194;2023-09-08T00:41:41;19.90;99.90
18444;DHT22;9350;53.176;8.194;2023-09-08T00:44:08;20.00;99.90
18444;DHT22;9350;53.176;8.194;2023-09-08T00:46:36;20.00;99.90
18444;DHT22;9350;53.176;8.194;2023-09-08T00:49:04;19.90;99.90
18444;DHT22;9350;53.176;8.194;2023-09-08T00:51:33;20.00;99.90
18444;DHT22;9350;53.176;8.194;2023-09-08T00:54:00;20.00;99.90
18444;DHT22;9350;53.176;8.194;2023-09-08T00:56:29;20.10;99.90
18444;DHT22;9350;53.176;8.194;2023-09-08T00:58:56;20.00;99.90
18444;DHT22;9350;53.176;8.194;2023-09-08T01:01:23;20.00;99.90
18444;DHT22;9350;53.176;8.194;2023-09-08T01:03:50;20.00;99.90
18444;DHT22;9350;53.176;8.194;2023-09-08T01:06:16;20.00;99.90
18444;DHT22;9350;53.176;8.194;2023-09-08T01:08:45;19.90;99.90
18444;DHT22;9350;53.176;8.194;2023-09-08T01:11:12;19.80;99.90
18444;DHT22;9350;53.176;8.194;2023-09-08T01:13:39;19.80;99.90
18444;DHT22;9350;53.176;8.194;2023-09-08T01:16:06;19.80;99.90
18444;DHT22;9350;53.176;8.194;2023-09-08T01:18:32;19.70;99.90
18444;DHT22;9350;53.176;8.194;2023-09-08T01:21:25;19.70;99.90
18444;DHT22;9350;53.176;8.194;2023-09-08T01:24:16;19.70;99.90
18444;DHT22;9350;53.176;8.194;2023-09-08T01:26:45;19.70;99.90
18444;DHT22;9350;53.176;8.194;2023-09-08T01:29:13;19.70;99.90
18444;DHT22;9350;53.176;8.194;2023-09-08T01:31:40;19.60;99.90
18444;DHT22;9350;53.176;8.194;2023-09-08T01:34:08;19.60;99.90
18444;DHT22;9350;53.176;8.194;2023-09-08T01:36:35;19.60;99.90
18444;DHT22;9350;53.176;8.194;2023-09-08T01:39:02;19.60;99.90
18444;DHT22;9350;53.176;8.194;2023-09-08T01:41:29;19.60;99.90
18444;DHT22;9350;53.176;8.194;2023-09-08T01:43:58;19.60;99.90
18444;DHT22;9350;53.176;8.194;2023-09-08T01:46:25;19.60;99.90
18444;DHT22;9350;53.176;8.194;2023-09-08T01:48:51;19.60;99.90
18444;DHT22;9350;53.176;8.194;2023-09-08T01:51:18;19.50;99.90
18444;DHT22;9350;53.176;8.194;2023-09-08T01:53:48;19.50;99.90
18444;DHT22;9350;53.176;8.194;2023-09-08T01:56:15;19.60;99.90
18444;DHT22;9350;53.176;8.194;2023-09-08T01:58:41;19.50;99.90
18444;DHT22;9350;53.176;8.194;2023-09-08T02:01:09;19.50;99.90
18444;DHT22;9350;53.176;8.194;2023-09-08T02:03:36;19.50;99.90
18444;DHT22;9350;53.176;8.194;2023-09-08T02:06:03;19.50;99.90
18444;DHT22;9350;53.176;8.194;2023-09-08T02:08:29;19.40;99.90
18444;DHT22;9350;53.176;8.194;2023-09-08T02:10:56;19.40;99.90
18444;DHT22;9350;53.176;8.194;2023-09-08T02:13:23;19.40;99.90
18444;DHT22;9350;53.176;8.194;2023-09-08T02:15:49;19.40;99.90
18444;DHT22;9350;53.176;8.194;2023-09-08T02:18:18;19.40;99.90
18444;DHT22;9350;53.176;8.194;2023-09-08T02:20:44;19.40;99.90
18444;DHT22;9350;53.176;8.194;2023-09-08T02:23:11;19.30;99.90
18444;DHT22;9350;53.176;8.194;2023-09-08T02:25:38;19.30;99.90
18444;DHT22;9350;53.176;8.194;2023-09-08T02:28:05;19.30;99.90
18444;DHT22;9350;53.176;8.194;2023-09-08T02:30:32;19.30;99.90
18444;DHT22;9350;53.176;8.194;2023-09-08T02:32:58;19.20;99.90
18444;DHT22;9350;53.176;8.194;2023-09-08T02:35:26;19.30;99.90
18444;DHT22;9350;53.176;8.194;2023-09-08T02:37:53;19.20;99.90
18444;DHT22;9350;53.176;8.194;2023-09-08T02:40:20;19.20;99.90
18444;DHT22;9350;53.176;8.194;2023-09-08T02:42:46;19.20;99.90
18444;DHT22;9350;53.176;8.194;2023-09-08T02:45:13;19.20;99.90
18444;DHT22;9350;53.176;8.194;2023-09-08T02:47:40;19.20;99.90
18444;DHT22;9350;53.176;8.194;2023-09-08T02:50:07;19.20;99.90
18444;DHT22;9350;53.176;8.194;2023-09-08T02:52:35;19.20;99.90
18444;DHT22;9350;53.176;8.194;2023-09-08T02:55:02;19.10;99.90
18444;DHT22;9350;53.176;8.194;2023-09-08T02:57:29;19.10;99.90
18444;DHT22;9350;53.176;8.194;2023-09-08T02:59:56;19.10;99.90
18444;DHT22;9350;53.176;8.194;2023-09-08T03:02:24;19.00;99.90
18444;DHT22;9350;53.176;8.194;2023-09-08T03:04:50;19.00;99.90
18444;DHT22;9350;53.176;8.194;2023-09-08T03:07:17;18.90;99.90
18444;DHT22;9350;53.176;8.194;2023-09-08T03:09:45;18.90;99.90
18444;DHT22;9350;53.176;8.194;2023-09-08T03:12:12;18.90;99.90
18444;DHT22;9350;53.176;8.194;2023-09-08T03:14:39;18.90;99.90
18444;DHT22;9350;53.176;8.194;2023-09-08T03:17:05;18.90;99.90
18444;DHT22;9350;53.176;8.194;2023-09-08T03:19:32;18.90;99.90
18444;DHT22;9350;53.176;8.194;2023-09-08T03:21:59;18.90;99.90
18444;DHT22;9350;53.176;8.194;2023-09-08T03:24:26;18.80;99.90
18444;DHT22;9350;53.176;8.194;2023-09-08T03:26:54;18.80;99.90
18444;DHT22;9350;53.176;8.194;2023-09-08T03:29:21;18.80;99.90
18444;DHT22;9350;53.176;8.194;2023-09-08T03:31:48;18.80;99.90
18444;DHT22;9350;53.176;8.194;2023-09-08T03:34:14;18.80;99.90
18444;DHT22;9350;53.176;8.194;2023-09-08T03:36:41;18.70;99.90
18444;DHT22;9350;53.176;8.194;2023-09-08T03:39:08;18.70;99.90
18444;DHT22;9350;53.176;8.194;2023-09-08T03:41:35;18.60;99.90
18444;DHT22;9350;53.176;8.194;2023-09-08T03:44:03;18.60;99.90
18444;DHT22;9350;53.176;8.194;2023-09-08T03:46:30;18.60;99.90
18444;DHT22;9350;53.176;8.194;2023-09-08T03:48:57;18.50;99.90
18444;DHT22;9350;53.176;8.194;2023-09-08T03:51:26;18.50;99.90
18444;DHT22;9350;53.176;8.194;2023-09-08T03:53:53;18.50;99.90
18444;DHT22;9350;53.176;8.194;2023-09-08T03:56:20;18.40;99.90
18444;DHT22;9350;53.176;8.194;2023-09-08T03:58:47;18.40;99.90
18444;DHT22;9350;53.176;8.194;2023-09-08T04:01:15;18.30;99.90
18444;DHT22;9350;53.176;8.194;2023-09-08T04:03:42;18.30;99.90
18444;DHT22;9350;53.176;8.194;2023-09-08T04:06:09;18.30;99.90
18444;DHT22;9350;53.176;8.194;2023-09-08T04:08:35;18.30;99.90
18444;DHT22;9350;53.176;8.194;2023-09-08T04:11:02;18.20;99.90
18444;DHT22;9350;53.176;8.194;2023-09-08T04:13:29;18.20;99.90
18444;DHT22;9350;53.176;8.194;2023-09-08T04:15:55;18.20;99.90
18444;DHT22;9350;53.176;8.194;2023-09-08T04:18:24;18.10;99.90
18444;DHT22;9350;53.176;8.194;2023-09-08T04:20:50;18.10;99.90
18444;DHT22;9350;53.176;8.194;2023-09-08T04:23:17;18.00;99.90
18444;DHT22;9350;53.176;8.194;2023-09-08T04:25:44;18.00;99.90
18444;DHT22;9350;53.176;8.194;2023-09-08T04:28:10;17.90;99.90
18444;DHT22;9350;53.176;8.194;2023-09-08T04:30:37;17.90;99.90
18444;DHT22;9350;53.176;8.194;2023-09-08T04:33:04;17.90;99.90
18444;DHT22;9350;53.176;8.194;2023-09-08T04:35:32;17.90;99.90
18444;DHT22;9350;53.176;8.194;2023-09-08T04:37:59;17.80;99.90
18444;DHT22;9350;53.176;8.194;2023-09-08T04:40:26;17.90;99.90
18444;DHT22;9350;53.176;8.194;2023-09-08T04:42:52;17.80;99.90
18444;DHT22;9350;53.176;8.194;2023-09-08T04:45:19;17.80;99.90
18444;DHT22;9350;53.176;8.194;2023-09-08T04:47:46;17.70;99.90
18444;DHT22;9350;53.176;8.194;2023-09-08T04:50:13;17.80;99.90
18444;DHT22;9350;53.176;8.194;2023-09-08T04:52:41;17.70;99.90
18444;DHT22;9350;53.176;8.194;2023-09-08T04:55:09;17.70;99.90
18444;DHT22;9350;53.176;8.194;2023-09-08T04:57:36;17.70;99.90
18444;DHT22;9350;53.176;8.194;2023-09-08T05:00:03;17.60;99.90
18444;DHT22;9350;53.176;8.194;2023-09-08T05:02:29;17.60;99.90
18444;DHT22;9350;53.176;8.194;2023-09-08T05:04:56;17.60;99.90
18444;DHT22;9350;53.176;8.194;2023-09-08T05:07:23;17.60;99.90
18444;DHT22;9350;53.176;8.194;2023-09-08T05:09:51;17.60;99.90
18444;DHT22;9350;53.176;8.194;2023-09-08T05:12:18;17.60;99.90
18444;DHT22;9350;53.176;8.194;2023-09-08T05:14:44;17.60;99.90
18444;DHT22;9350;53.176;8.194;2023-09-08T05:17:11;17.60;99.90
18444;DHT22;9350;53.176;8.194;2023-09-08T05:19:38;17.60;99.90
18444;DHT22;9350;53.176;8.194;2023-09-08T05:22:05;17.60;99.90
18444;DHT22;9350;53.176;8.194;2023-09-08T05:24:32;17.60;99.90
18444;DHT22;9350;53.176;8.194;2023-09-08T05:27:00;17.60;99.90
18444;DHT22;9350;53.176;8.194;2023-09-08T05:29:27;17.60;99.90
18444;DHT22;9350;53.176;8.194;2023-09-08T05:31:53;17.60;99.90
18444;DHT22;9350;53.176;8.194;2023-09-08T05:34:20;17.70;99.90
18444;DHT22;9350;53.176;8.194;2023-09-08T05:36:47;17.70;99.90
18444;DHT22;9350;53.176;8.194;2023-09-08T05:39:14;17.70;99.90
18444;DHT22;9350;53.176;8.194;2023-09-08T05:41:43;17.70;99.90
18444;DHT22;9350;53.176;8.194;2023-09-08T05:44:11;17.70;99.90
18444;DHT22;9350;53.176;8.194;2023-09-08T05:46:38;17.80;99.90
18444;DHT22;9350;53.176;8.194;2023-09-08T05:49:04;17.80;99.90
18444;DHT22;9350;53.176;8.194;2023-09-08T05:51:32;17.80;99.90
18444;DHT22;9350;53.176;8.194;2023-09-08T05:53:59;17.90;99.90
18444;DHT22;9350;53.176;8.194;2023-09-08T05:56:29;17.90;99.90
18444;DHT22;9350;53.176;8.194;2023-09-08T05:58:56;17.90;99.90
18444;DHT22;9350;53.176;8.194;2023-09-08T06:01:24;17.90;99.90
18444;DHT22;9350;53.176;8.194;2023-09-08T06:03:51;17.90;99.90
18444;DHT22;9350;53.176;8.194;2023-09-08T06:06:19;18.00;99.90
18444;DHT22;9350;53.176;8.194;2023-09-08T06:08:46;18.00;99.90
18444;DHT22;9350;53.176;8.194;2023-09-08T06:11:13;18.00;99.90
18444;DHT22;9350;53.176;8.194;2023-09-08T06:13:40;18.10;99.90
18444;DHT22;9350;53.176;8.194;2023-09-08T06:16:07;18.10;99.90
18444;DHT22;9350;53.176;8.194;2023-09-08T06:18:35;18.10;99.90
18444;DHT22;9350;53.176;8.194;2023-09-08T06:21:05;18.30;99.90
18444;DHT22;9350;53.176;8.194;2023-09-08T06:23:32;18.20;99.90
18444;DHT22;9350;53.176;8.194;2023-09-08T06:26:00;18.30;99.90
18444;DHT22;9350;53.176;8.194;2023-09-08T06:28:26;18.30;99.90
18444;DHT22;9350;53.176;8.194;2023-09-08T06:30:53;18.40;99.90
18444;DHT22;9350;53.176;8.194;2023-09-08T06:33:21;18.50;99.90
18444;DHT22;9350;53.176;8.194;2023-09-08T06:35:49;18.50;99.90
18444;DHT22;9350;53.176;8.194;2023-09-08T06:38:15;18.50;99.90
18444;DHT22;9350;53.176;8.194;2023-09-08T06:40:42;18.50;99.90
18444;DHT22;9350;53.176;8.194;2023-09-08T06:43:09;18.60;99.90
18444;DHT22;9350;53.176;8.194;2023-09-08T06:45:37;18.70;99.90
18444;DHT22;9350;53.176;8.194;2023-09-08T06:48:04;18.70;99.90
18444;DHT22;9350;53.176;8.194;2023-09-08T06:50:31;18.80;99.90
18444;DHT22;9350;53.176;8.194;2023-09-08T06:52:59;18.80;99.90
18444;DHT22;9350;53.176;8.194;2023-09-08T06:55:27;18.80;99.90
18444;DHT22;9350;53.176;8.194;2023-09-08T06:57:53;18.90;99.90
18444;DHT22;9350;53.176;8.194;2023-09-08T07:00:20;18.90;99.90
18444;DHT22;9350;53.176;8.194;2023-09-08T07:02:47;19.00;99.90
18444;DHT22;9350;53.176;8.194;2023-09-08T07:05:15;19.00;99.90
18444;DHT22;9350;53.176;8.194;2023-09-08T07:07:42;19.10;99.90
18444;DHT22;9350;53.176;8.194;2023-09-08T07:10:11;19.10;99.90
18444;DHT22;9350;53.176;8.194;2023-09-08T07:12:38;19.20;99.90
18444;DHT22;9350;53.176;8.194;2023-09-08T07:15:05;19.10;99.90
18444;DHT22;9350;53.176;8.194;2023-09-08T07:17:32;19.10;99.90
18444;DHT22;9350;53.176;8.194;2023-09-08T07:19:59;19.20;99.90
18444;DHT22;9350;53.176;8.194;2023-09-08T07:22:25;19.30;99.90
18444;DHT22;9350;53.176;8.194;2023-09-08T07:24:52;19.30;99.90
18444;DHT22;9350;53.176;8.194;2023-09-08T07:27:20;19.40;99.90
18444;DHT22;9350;53.176;8.194;2023-09-08T07:29:47;19.40;99.90
18444;DHT22;9350;53.176;8.194;2023-09-08T07:32:15;19.40;99.90
18444;DHT22;9350;53.176;8.194;2023-09-08T07:34:41;19.50;99.90
18444;DHT22;9350;53.176;8.194;2023-09-08T07:37:08;19.50;99.90
18444;DHT22;9350;53.176;8.194;2023-09-08T07:39:35;19.50;99.90
18444;DHT22;9350;53.176;8.194;2023-09-08T07:42:02;19.60;99.90
18444;DHT22;9350;53.176;8.194;2023-09-08T07:44:30;19.60;99.90
18444;DHT22;9350;53.176;8.194;2023-09-08T07:46:57;19.70;99.90
18444;DHT22;9350;53.176;8.194;2023-09-08T07:49:23;19.70;99.90
18444;DHT22;9350;53.176;8.194;2023-09-08T07:51:50;19.70;99.90
18444;DHT22;9350;53.176;8.194;2023-09-08T07:54:17;19.80;99.90
18444;DHT22;9350;53.176;8.194;2023-09-08T07:56:44;19.80;99.90
18444;DHT22;9350;53.176;8.194;2023-09-08T07:59:10;19.80;99.90
18444;DHT22;9350;53.176;8.194;2023-09-08T08:01:38;19.80;99.90
18444;DHT22;9350;53.176;8.194;2023-09-08T08:04:05;19.90;99.90
18444;DHT22;9350;53.176;8.194;2023-09-08T08:06:32;20.00;99.90
18444;DHT22;9350;53.176;8.194;2023-09-08T08:08:58;20.00;99.90
18444;DHT22;9350;53.176;8.194;2023-09-08T08:11:26;20.00;99.90
18444;DHT22;9350;53.176;8.194;2023-09-08T08:13:53;20.10;99.90
18444;DHT22;9350;53.176;8.194;2023-09-08T08:16:22;20.10;99.90
18444;DHT22;9350;53.176;8.194;2023-09-08T08:18:50;20.10;99.90
18444;DHT22;9350;53.176;8.194;2023-09-08T08:21:16;20.20;99.90
18444;DHT22;9350;53.176;8.194;2023-09-08T08:23:43;20.20;99.90
18444;DHT22;9350;53.176;8.194;2023-09-08T08:26:10;20.30;99.90
18444;DHT22;9350;53.176;8.194;2023-09-08T08:28:36;20.30;99.90
18444;DHT22;9350;53.176;8.194;2023-09-08T08:31:03;20.40;99.90
18444;DHT22;9350;53.176;8.194;2023-09-08T08:33:30;20.40;99.90
18444;DHT22;9350;53.176;8.194;2023-09-08T08:35:58;20.50;99.90
18444;DHT22;9350;53.176;8.194;2023-09-08T08:38:25;20.50;99.90
18444;DHT22;9350;53.176;8.194;2023-09-08T08:40:52;20.50;99.90
18444;DHT22;9350;53.176;8.194;2023-09-08T08:43:19;20.50;99.90
18444;DHT22;9350;53.176;8.194;2023-09-08T08:45:48;20.60;99.90
18444;DHT22;9350;53.176;8.194;2023-09-08T08:48:16;20.60;99.90
18444;DHT22;9350;53.176;8.194;2023-09-08T08:50:44;20.60;99.90
18444;DHT22;9350;53.176;8.194;2023-09-08T08:53:12;20.70;99.90
18444;DHT22;9350;53.176;8.194;2023-09-08T08:55:39;20.70;99.90
18444;DHT22;9350;53.176;8.194;2023-09-08T08:58:07;20.80;99.90
18444;DHT22;9350;53.176;8.194;2023-09-08T09:00:34;20.80;99.90
18444;DHT22;9350;53.176;8.194;2023-09-08T09:03:04;20.90;99.90
18444;DHT22;9350;53.176;8.194;2023-09-08T09:05:31;20.90;99.90
18444;DHT22;9350;53.176;8.194;2023-09-08T09:07:58;21.00;99.90
18444;DHT22;9350;53.176;8.194;2023-09-08T09:10:30;21.00;99.90
18444;DHT22;9350;53.176;8.194;2023-09-08T09:12:57;21.10;99.90
18444;DHT22;9350;53.176;8.194;2023-09-08T09:15:29;21.20;99.90
18444;DHT22;9350;53.176;8.194;2023-09-08T09:18:03;21.20;99.90
18444;DHT22;9350;53.176;8.194;2023-09-08T09:20:31;21.30;99.90
18444;DHT22;9350;53.176;8.194;2023-09-08T09:22:57;21.30;99.90
18444;DHT22;9350;53.176;8.194;2023-09-08T09:25:27;21.40;99.90
18444;DHT22;9350;53.176;8.194;2023-09-08T09:27:57;21.40;99.90
18444;DHT22;9350;53.176;8.194;2023-09-08T09:30:25;21.50;99.90
18444;DHT22;9350;53.176;8.194;2023-09-08T09:32:59;21.60;99.90
18444;DHT22;9350;53.176;8.194;2023-09-08T09:35:40;21.60;99.90
18444;DHT22;9350;53.176;8.194;2023-09-08T09:38:06;21.80;99.90
18444;DHT22;9350;53.176;8.194;2023-09-08T09:40:33;21.80;99.90
18444;DHT22;9350;53.176;8.194;2023-09-08T09:43:02;21.90;99.90
18444;DHT22;9350;53.176;8.194;2023-09-08T09:45:30;21.90;99.90
18444;DHT22;9350;53.176;8.194;2023-09-08T09:47:57;22.00;99.90
18444;DHT22;9350;53.176;8.194;2023-09-08T09:50:28;22.10;99.90
18444;DHT22;9350;53.176;8.194;2023-09-08T09:52:57;22.10;99.90
18444;DHT22;9350;53.176;8.194;2023-09-08T09:55:25;22.20;99.90
18444;DHT22;9350;53.176;8.194;2023-09-08T09:57:55;22.20;99.90
18444;DHT22;9350;53.176;8.194;2023-09-08T10:00:24;22.30;99.90
18444;DHT22;9350;53.176;8.194;2023-09-08T10:02:51;22.30;99.90
18444;DHT22;9350;53.176;8.194;2023-09-08T10:05:19;22.40;99.90
18444;DHT22;9350;53.176;8.194;2023-09-08T10:07:46;22.40;99.90
18444;DHT22;9350;53.176;8.194;2023-09-08T10:10:13;22.50;99.90
18444;DHT22;9350;53.176;8.194;2023-09-08T10:12:41;22.60;99.90
18444;DHT22;9350;53.176;8.194;2023-09-08T10:15:10;22.60;99.90
18444;DHT22;9350;53.176;8.194;2023-09-08T10:17:40;22.60;99.90
18444;DHT22;9350;53.176;8.194;2023-09-08T10:20:09;22.70;99.90
18444;DHT22;9350;53.176;8.194;2023-09-08T10:22:39;22.70;99.90
18444;DHT22;9350;53.176;8.194;2023-09-08T10:25:08;22.80;99.90
18444;DHT22;9350;53.176;8.194;2023-09-08T10:27:35;22.80;99.90
18444;DHT22;9350;53.176;8.194;2023-09-08T10:30:04;22.90;99.90
18444;DHT22;9350;53.176;8.194;2023-09-08T10:32:33;23.00;99.90
18444;DHT22;9350;53.176;8.194;2023-09-08T10:35:02;23.00;99.90
18444;DHT22;9350;53.176;8.194;2023-09-08T10:37:30;23.10;99.90
18444;DHT22;9350;53.176;8.194;2023-09-08T10:40:20;23.10;99.90
18444;DHT22;9350;53.176;8.194;2023-09-08T10:42:46;23.10;99.90
18444;DHT22;9350;53.176;8.194;2023-09-08T10:45:17;23.20;99.90
18444;DHT22;9350;53.176;8.194;2023-09-08T10:47:56;23.20;99.90
18444;DHT22;9350;53.176;8.194;2023-09-08T10:50:31;23.30;99.90
18444;DHT22;9350;53.176;8.194;2023-09-08T10:53:15;23.40;99.90
18444;DHT22;9350;53.176;8.194;2023-09-08T10:55:43;23.50;99.90
18444;DHT22;9350;53.176;8.194;2023-09-08T10:58:20;23.50;99.90
18444;DHT22;9350;53.176;8.194;2023-09-08T11:00:51;23.60;99.90
18444;DHT22;9350;53.176;8.194;2023-09-08T11:03:26;23.60;99.90
18444;DHT22;9350;53.176;8.194;2023-09-08T11:05:56;23.60;99.90
18444;DHT22;9350;53.176;8.194;2023-09-08T11:08:23;23.70;99.90
18444;DHT22;9350;53.176;8.194;2023-09-08T11:10:50;23.80;99.90
18444;DHT22;9350;53.176;8.194;2023-09-08T11:13:17;23.80;99.90
18444;DHT22;9350;53.176;8.194;2023-09-08T11:15:44;23.80;99.90
18444;DHT22;9350;53.176;8.194;2023-09-08T11:18:11;23.80;99.90
18444;DHT22;9350;53.176;8.194;2023-09-08T11:20:37;23.90;99.90
18444;DHT22;9350;53.176;8.194;2023-09-08T11:23:05;23.90;99.90
18444;DHT22;9350;53.176;8.194;2023-09-08T11:25:33;24.00;99.90
18444;DHT22;9350;53.176;8.194;2023-09-08T11:28:00;24.10;99.90
18444;DHT22;9350;53.176;8.194;2023-09-08T11:30:28;24.10;99.90
18444;DHT22;9350;53.176;8.194;2023-09-08T11:32:54;24.20;99.90
18444;DHT22;9350;53.176;8.194;2023-09-08T11:35:26;24.20;99.90
18444;DHT22;9350;53.176;8.194;2023-09-08T11:37:59;24.20;99.90
18444;DHT22;9350;53.176;8.194;2023-09-08T11:40:28;24.30;99.90
18444;DHT22;9350;53.176;8.194;2023-09-08T11:42:55;24.30;99.90
18444;DHT22;9350;53.176;8.194;2023-09-08T11:45:22;24.40;99.90
18444;DHT22;9350;53.176;8.194;2023-09-08T11:47:50;24.40;99.90
18444;DHT22;9350;53.176;8.194;2023-09-08T11:50:18;24.40;99.90
18444;DHT22;9350;53.176;8.194;2023-09-08T11:52:46;24.50;99.90
18444;DHT22;9350;53.176;8.194;2023-09-08T11:55:14;24.60;99.90
18444;DHT22;9350;53.176;8.194;2023-09-08T11:57:44;24.50;99.90
18444;DHT22;9350;53.176;8.194;2023-09-08T12:00:12;24.50;99.90
18444;DHT22;9350;53.176;8.194;2023-09-08T12:02:43;24.60;99.90
18444;DHT22;9350;53.176;8.194;2023-09-08T12:05:19;24.70;99.90
18444;DHT22;9350;53.176;8.194;2023-09-08T12:07:46;24.70;99.90
18444;DHT22;9350;53.176;8.194;2023-09-08T12:10:13;24.80;99.90
18444;DHT22;9350;53.176;8.194;2023-09-08T12:12:46;24.80;99.90
18444;DHT22;9350;53.176;8.194;2023-09-08T12:15:31;24.90;99.90
18444;DHT22;9350;53.176;8.194;2023-09-08T12:17:59;24.90;99.90
18444;DHT22;9350;53.176;8.194;2023-09-08T12:20:26;24.90;99.90
18444;DHT22;9350;53.176;8.194;2023-09-08T12:22:53;24.90;99.90
18444;DHT22;9350;53.176;8.194;2023-09-08T12:25:20;24.90;99.90
18444;DHT22;9350;53.176;8.194;2023-09-08T12:27:50;24.90;99.90
18444;DHT22;9350;53.176;8.194;2023-09-08T12:30:17;25.00;99.90
18444;DHT22;9350;53.176;8.194;2023-09-08T12:32:47;25.00;99.90
18444;DHT22;9350;53.176;8.194;2023-09-08T12:35:20;25.00;99.90
18444;DHT22;9350;53.176;8.194;2023-09-08T12:37:51;25.10;99.90
18444;DHT22;9350;53.176;8.194;2023-09-08T12:40:18;25.10;99.90
18444;DHT22;9350;53.176;8.194;2023-09-08T12:42:45;25.10;99.90
18444;DHT22;9350;53.176;8.194;2023-09-08T12:45:13;25.10;99.90
18444;DHT22;9350;53.176;8.194;2023-09-08T12:47:39;25.10;99.90
18444;DHT22;9350;53.176;8.194;2023-09-08T12:50:07;25.30;99.90
18444;DHT22;9350;53.176;8.194;2023-09-08T12:52:34;25.20;99.90
18444;DHT22;9350;53.176;8.194;2023-09-08T12:55:00;25.20;99.90
18444;DHT22;9350;53.176;8.194;2023-09-08T12:57:27;25.30;99.90
18444;DHT22;9350;53.176;8.194;2023-09-08T12:59:55;25.20;99.90
18444;DHT22;9350;53.176;8.194;2023-09-08T13:02:23;25.30;99.90
18444;DHT22;9350;53.176;8.194;2023-09-08T13:04:50;25.30;99.90
18444;DHT22;9350;53.176;8.194;2023-09-08T13:07:17;25.30;99.90
18444;DHT22;9350;53.176;8.194;2023-09-08T13:09:44;25.20;99.90
18444;DHT22;9350;53.176;8.194;2023-09-08T13:12:11;25.30;99.90
18444;DHT22;9350;53.176;8.194;2023-09-08T13:14:38;25.30;99.90
18444;DHT22;9350;53.176;8.194;2023-09-08T13:17:05;25.30;99.90
18444;DHT22;9350;53.176;8.194;2023-09-08T13:19:33;25.30;99.90
18444;DHT22;9350;53.176;8.194;2023-09-08T13:22:00;25.40;99.90
18444;DHT22;9350;53.176;8.194;2023-09-08T13:24:27;25.40;99.90
18444;DHT22;9350;53.176;8.194;2023-09-08T13:26:53;25.40;99.90
18444;DHT22;9350;53.176;8.194;2023-09-08T13:29:20;25.40;99.90
18444;DHT22;9350;53.176;8.194;2023-09-08T13:31:47;25.40;99.90
18444;DHT22;9350;53.176;8.194;2023-09-08T13:34:14;25.40;99.90
18444;DHT22;9350;53.176;8.194;2023-09-08T13:36:42;25.40;99.90
18444;DHT22;9350;53.176;8.194;2023-09-08T13:39:08;25.40;99.90
18444;DHT22;9350;53.176;8.194;2023-09-08T13:41:46;25.40;99.90
18444;DHT22;9350;53.176;8.194;2023-09-08T13:44:13;25.40;99.90
18444;DHT22;9350;53.176;8.194;2023-09-08T13:46:40;25.40;99.90
18444;DHT22;9350;53.176;8.194;2023-09-08T13:49:06;25.40;99.90
18444;DHT22;9350;53.176;8.194;2023-09-08T13:51:33;25.40;99.90
18444;DHT22;9350;53.176;8.194;2023-09-08T13:54:01;25.30;99.90
18444;DHT22;9350;53.176;8.194;2023-09-08T13:56:28;25.30;99.90
18444;DHT22;9350;53.176;8.194;2023-09-08T13:58:54;25.30;99.90
18444;DHT22;9350;53.176;8.194;2023-09-08T14:01:21;25.30;99.90
18444;DHT22;9350;53.176;8.194;2023-09-08T14:03:48;25.30;99.90
18444;DHT22;9350;53.176;8.194;2023-09-08T14:06:17;25.30;99.90
18444;DHT22;9350;53.176;8.194;2023-09-08T14:08:44;25.30;99.90
18444;DHT22;9350;53.176;8.194;2023-09-08T14:11:12;25.30;99.90
18444;DHT22;9350;53.176;8.194;2023-09-08T14:13:38;25.30;99.90
18444;DHT22;9350;53.176;8.194;2023-09-08T14:16:05;25.30;99.90
18444;DHT22;9350;53.176;8.194;2023-09-08T14:18:32;25.40;99.90
18444;DHT22;9350;53.176;8.194;2023-09-08T14:20:59;25.40;99.90
18444;DHT22;9350;53.176;8.194;2023-09-08T14:23:26;25.40;99.90
18444;DHT22;9350;53.176;8.194;2023-09-08T14:25:54;25.40;99.90
18444;DHT22;9350;53.176;8.194;2023-09-08T14:28:22;25.50;99.90
18444;DHT22;9350;53.176;8.194;2023-09-08T14:30:49;25.50;99.90
18444;DHT22;9350;53.176;8.194;2023-09-08T14:33:17;25.50;99.90
18444;DHT22;9350;53.176;8.194;2023-09-08T14:35:43;25.50;99.90
18444;DHT22;9350;53.176;8.194;2023-09-08T14:38:12;25.40;99.90
18444;DHT22;9350;53.176;8.194;2023-09-08T14:40:41;25.40;99.90
18444;DHT22;9350;53.176;8.194;2023-09-08T14:43:08;25.40;99.90
18444;DHT22;9350;53.176;8.194;2023-09-08T14:45:36;25.50;99.90
18444;DHT22;9350;53.176;8.194;2023-09-08T14:48:03;25.50;99.90
18444;DHT22;9350;53.176;8.194;2023-09-08T14:50:31;25.50;99.90
18444;DHT22;9350;53.176;8.194;2023-09-08T14:52:58;25.50;99.90
18444;DHT22;9350;53.176;8.194;2023-09-08T14:55:24;25.40;99.90
18444;DHT22;9350;53.176;8.194;2023-09-08T14:57:51;25.40;99.90
18444;DHT22;9350;53.176;8.194;2023-09-08T15:00:18;25.40;99.90
18444;DHT22;9350;53.176;8.194;2023-09-08T15:02:46;25.40;99.90
18444;DHT22;9350;53.176;8.194;2023-09-08T15:05:13;25.40;99.90
18444;DHT22;9350;53.176;8.194;2023-09-08T15:07:39;25.40;99.90
18444;DHT22;9350;53.176;8.194;2023-09-08T15:10:06;25.40;99.90
18444;DHT22;9350;53.176;8.194;2023-09-08T15:12:34;25.40;99.90
18444;DHT22;9350;53.176;8.194;2023-09-08T15:15:00;25.40;99.90
18444;DHT22;9350;53.176;8.194;2023-09-08T15:17:27;25.40;99.90
18444;DHT22;9350;53.176;8.194;2023-09-08T15:19:55;25.40;99.90
18444;DHT22;9350;53.176;8.194;2023-09-08T15:22:24;25.40;99.90
18444;DHT22;9350;53.176;8.194;2023-09-08T15:24:50;25.40;99.90
18444;DHT22;9350;53.176;8.194;2023-09-08T15:27:17;25.30;99.90
18444;DHT22;9350;53.176;8.194;2023-09-08T15:29:44;25.20;99.90
18444;DHT22;9350;53.176;8.194;2023-09-08T15:32:10;25.20;99.90
18444;DHT22;9350;53.176;8.194;2023-09-08T15:34:37;25.20;99.90
18444;DHT22;9350;53.176;8.194;2023-09-08T15:37:05;25.20;99.90
18444;DHT22;9350;53.176;8.194;2023-09-08T15:39:32;25.20;99.90
18444;DHT22;9350;53.176;8.194;2023-09-08T15:41:58;25.10;99.90
18444;DHT22;9350;53.176;8.194;2023-09-08T15:44:25;25.10;99.90
18444;DHT22;9350;53.176;8.194;2023-09-08T15:46:52;25.10;99.90